sensor_id;sensor_type;location;lat;lon;timestamp;P1;durP1;ratioP1;P2;durP2;ratioP2
74074;SDS011;62428;51.412;5.432;2022-11-20T00:01:59;14.43;;;6.03;;
74074;SDS011;62428;51.412;5.432;2022-11-20T00:04:24;12.13;;;5.07;;
74074;SDS011;62428;51.412;5.432;2022-11-20T00:06:50;12.80;;;5.77;;
74074;SDS011;62428;51.412;5.432;2022-11-20T00:09:15;12.60;;;5.70;;
74074;SDS011;62428;51.412;5.432;2022-11-20T00:11:40;10.67;;;5.60;;
74074;SDS011;62428;51.412;5.432;2022-11-20T00:14:06;13.03;;;5.73;;
74074;SDS011;62428;51.412;5.432;2022-11-20T00:16:31;14.13;;;6.40;;
74074;SDS011;62428;51.412;5.432;2022-11-20T00:18:58;13.23;;;6.18;;
74074;SDS011;62428;51.412;5.432;2022-11-20T00:21:25;11.53;;;5.53;;
74074;SDS011;62428;51.412;5.432;2022-11-20T00:23:53;13.05;;;5.93;;
74074;SDS011;62428;51.412;5.432;2022-11-20T00:26:20;13.18;;;5.95;;
74074;SDS011;62428;51.412;5.432;2022-11-20T00:28:53;12.57;;;5.82;;
74074;SDS011;62428;51.412;5.432;2022-11-20T00:31:19;9.53;;;4.63;;
74074;SDS011;62428;51.412;5.432;2022-11-20T00:33:45;13.48;;;5.78;;
74074;SDS011;62428;51.412;5.432;2022-11-20T00:36:12;12.37;;;5.17;;
74074;SDS011;62428;51.412;5.432;2022-11-20T00:38:39;12.57;;;6.00;;
74074;SDS011;62428;51.412;5.432;2022-11-20T00:41:05;14.13;;;6.10;;
74074;SDS011;62428;51.412;5.432;2022-11-20T00:43:33;12.63;;;5.88;;
74074;SDS011;62428;51.412;5.432;2022-11-20T00:45:59;14.52;;;6.35;;
74074;SDS011;62428;51.412;5.432;2022-11-20T00:48:25;12.90;;;5.53;;
74074;SDS011;62428;51.412;5.432;2022-11-20T00:50:51;10.48;;;5.50;;
74074;SDS011;62428;51.412;5.432;2022-11-20T00:53:16;14.02;;;6.05;;
74074;SDS011;62428;51.412;5.432;2022-11-20T00:55:42;13.47;;;6.63;;
74074;SDS011;62428;51.412;5.432;2022-11-20T00:58:07;12.70;;;5.97;;
74074;SDS011;62428;51.412;5.432;2022-11-20T01:00:33;14.40;;;6.53;;
74074;SDS011;62428;51.412;5.432;2022-11-20T01:02:58;16.43;;;6.03;;
74074;SDS011;62428;51.412;5.432;2022-11-20T01:05:23;17.23;;;5.77;;
74074;SDS011;62428;51.412;5.432;2022-11-20T01:07:48;16.13;;;6.90;;
74074;SDS011;62428;51.412;5.432;2022-11-20T01:10:14;15.23;;;6.60;;
74074;SDS011;62428;51.412;5.432;2022-11-20T01:12:39;12.60;;;6.05;;
74074;SDS011;62428;51.412;5.432;2022-11-20T01:15:04;13.45;;;6.07;;
74074;SDS011;62428;51.412;5.432;2022-11-20T01:17:30;13.63;;;6.57;;
74074;SDS011;62428;51.412;5.432;2022-11-20T01:19:56;18.08;;;6.45;;
74074;SDS011;62428;51.412;5.432;2022-11-20T01:22:22;15.77;;;6.40;;
74074;SDS011;62428;51.412;5.432;2022-11-20T01:24:47;16.17;;;7.10;;
74074;SDS011;62428;51.412;5.432;2022-11-20T01:27:13;14.33;;;6.57;;
74074;SDS011;62428;51.412;5.432;2022-11-20T01:29:38;15.87;;;7.07;;
74074;SDS011;62428;51.412;5.432;2022-11-20T01:32:03;13.37;;;6.50;;
74074;SDS011;62428;51.412;5.432;2022-11-20T01:34:29;14.98;;;6.63;;
74074;SDS011;62428;51.412;5.432;2022-11-20T01:36:54;14.03;;;6.50;;
74074;SDS011;62428;51.412;5.432;2022-11-20T01:39:24;12.93;;;6.60;;
74074;SDS011;62428;51.412;5.432;2022-11-20T01:41:51;14.05;;;5.93;;
74074;SDS011;62428;51.412;5.432;2022-11-20T01:44:50;13.88;;;6.78;;
74074;SDS011;62428;51.412;5.432;2022-11-20T01:47:22;15.77;;;5.90;;
74074;SDS011;62428;51.412;5.432;2022-11-20T01:49:53;14.60;;;6.53;;
74074;SDS011;62428;51.412;5.432;2022-11-20T01:52:27;15.00;;;7.15;;
74074;SDS011;62428;51.412;5.432;2022-11-20T01:55:07;13.95;;;6.85;;
74074;SDS011;62428;51.412;5.432;2022-11-20T01:57:35;18.60;;;7.72;;
74074;SDS011;62428;51.412;5.432;2022-11-20T02:00:20;17.33;;;7.20;;
74074;SDS011;62428;51.412;5.432;2022-11-20T02:02:48;16.75;;;7.47;;
74074;SDS011;62428;51.412;5.432;2022-11-20T02:05:21;15.75;;;7.28;;
74074;SDS011;62428;51.412;5.432;2022-11-20T02:07:50;17.25;;;7.22;;
74074;SDS011;62428;51.412;5.432;2022-11-20T02:10:18;14.23;;;7.03;;
74074;SDS011;62428;51.412;5.432;2022-11-20T02:12:43;15.07;;;7.37;;
74074;SDS011;62428;51.412;5.432;2022-11-20T02:15:27;16.55;;;7.20;;
74074;SDS011;62428;51.412;5.432;2022-11-20T02:17:53;13.80;;;6.77;;
74074;SDS011;62428;51.412;5.432;2022-11-20T02:20:18;15.17;;;7.43;;
74074;SDS011;62428;51.412;5.432;2022-11-20T02:23:27;14.47;;;6.90;;
74074;SDS011;62428;51.412;5.432;2022-11-20T02:25:53;15.90;;;7.55;;
74074;SDS011;62428;51.412;5.432;2022-11-20T02:28:20;17.15;;;7.45;;
74074;SDS011;62428;51.412;5.432;2022-11-20T02:30:45;16.40;;;7.10;;
74074;SDS011;62428;51.412;5.432;2022-11-20T02:33:11;14.13;;;6.35;;
74074;SDS011;62428;51.412;5.432;2022-11-20T02:35:41;16.00;;;6.57;;
74074;SDS011;62428;51.412;5.432;2022-11-20T02:38:08;15.55;;;6.32;;
74074;SDS011;62428;51.412;5.432;2022-11-20T02:40:33;16.77;;;6.93;;
74074;SDS011;62428;51.412;5.432;2022-11-20T02:42:59;15.88;;;6.68;;
74074;SDS011;62428;51.412;5.432;2022-11-20T02:45:24;16.80;;;6.43;;
74074;SDS011;62428;51.412;5.432;2022-11-20T02:47:50;15.73;;;7.03;;
74074;SDS011;62428;51.412;5.432;2022-11-20T02:50:16;16.00;;;7.18;;
74074;SDS011;62428;51.412;5.432;2022-11-20T02:52:41;19.77;;;7.60;;
74074;SDS011;62428;51.412;5.432;2022-11-20T02:55:07;16.17;;;7.82;;
74074;SDS011;62428;51.412;5.432;2022-11-20T02:57:32;17.15;;;7.68;;
74074;SDS011;62428;51.412;5.432;2022-11-20T02:59:58;16.20;;;7.33;;
74074;SDS011;62428;51.412;5.432;2022-11-20T03:02:23;16.27;;;7.17;;
74074;SDS011;62428;51.412;5.432;2022-11-20T03:04:49;15.18;;;6.90;;
74074;SDS011;62428;51.412;5.432;2022-11-20T03:07:14;18.20;;;7.53;;
74074;SDS011;62428;51.412;5.432;2022-11-20T03:09:40;18.77;;;6.40;;
74074;SDS011;62428;51.412;5.432;2022-11-20T03:12:05;14.70;;;6.53;;
74074;SDS011;62428;51.412;5.432;2022-11-20T03:14:30;14.93;;;7.17;;
74074;SDS011;62428;51.412;5.432;2022-11-20T03:16:56;16.70;;;6.85;;
74074;SDS011;62428;51.412;5.432;2022-11-20T03:19:22;16.60;;;7.10;;
74074;SDS011;62428;51.412;5.432;2022-11-20T03:21:47;15.87;;;6.60;;
74074;SDS011;62428;51.412;5.432;2022-11-20T03:24:13;16.50;;;6.63;;
74074;SDS011;62428;51.412;5.432;2022-11-20T03:26:39;18.40;;;7.17;;
74074;SDS011;62428;51.412;5.432;2022-11-20T03:29:04;17.40;;;7.10;;
74074;SDS011;62428;51.412;5.432;2022-11-20T03:31:32;18.70;;;6.72;;
74074;SDS011;62428;51.412;5.432;2022-11-20T03:33:59;14.23;;;6.20;;
74074;SDS011;62428;51.412;5.432;2022-11-20T03:36:26;14.25;;;6.55;;
74074;SDS011;62428;51.412;5.432;2022-11-20T03:38:53;14.98;;;6.50;;
74074;SDS011;62428;51.412;5.432;2022-11-20T03:41:20;16.73;;;6.90;;
74074;SDS011;62428;51.412;5.432;2022-11-20T03:43:47;14.68;;;6.85;;
74074;SDS011;62428;51.412;5.432;2022-11-20T03:46:13;14.17;;;6.50;;
74074;SDS011;62428;51.412;5.432;2022-11-20T03:48:39;15.90;;;7.63;;
74074;SDS011;62428;51.412;5.432;2022-11-20T03:53:33;13.45;;;6.93;;
74074;SDS011;62428;51.412;5.432;2022-11-20T03:55:59;13.30;;;6.60;;
74074;SDS011;62428;51.412;5.432;2022-11-20T03:58:24;16.17;;;7.75;;
74074;SDS011;62428;51.412;5.432;2022-11-20T04:00:49;15.17;;;6.43;;
74074;SDS011;62428;51.412;5.432;2022-11-20T04:03:15;12.97;;;6.43;;
74074;SDS011;62428;51.412;5.432;2022-11-20T04:05:40;19.83;;;7.60;;
74074;SDS011;62428;51.412;5.432;2022-11-20T04:08:05;12.90;;;7.10;;
74074;SDS011;62428;51.412;5.432;2022-11-20T04:10:30;15.67;;;7.50;;
74074;SDS011;62428;51.412;5.432;2022-11-20T04:12:56;15.03;;;6.07;;
74074;SDS011;62428;51.412;5.432;2022-11-20T04:15:21;18.37;;;7.13;;
74074;SDS011;62428;51.412;5.432;2022-11-20T04:17:46;16.00;;;7.27;;
74074;SDS011;62428;51.412;5.432;2022-11-20T04:20:12;14.77;;;6.88;;
74074;SDS011;62428;51.412;5.432;2022-11-20T04:22:37;15.97;;;7.30;;
74074;SDS011;62428;51.412;5.432;2022-11-20T04:25:02;16.43;;;6.63;;
74074;SDS011;62428;51.412;5.432;2022-11-20T04:27:28;14.90;;;7.10;;
74074;SDS011;62428;51.412;5.432;2022-11-20T04:29:55;16.98;;;7.38;;
74074;SDS011;62428;51.412;5.432;2022-11-20T04:32:20;13.87;;;6.43;;
74074;SDS011;62428;51.412;5.432;2022-11-20T04:34:46;14.10;;;6.73;;
74074;SDS011;62428;51.412;5.432;2022-11-20T04:37:11;15.10;;;6.47;;
74074;SDS011;62428;51.412;5.432;2022-11-20T04:39:36;16.77;;;8.20;;
74074;SDS011;62428;51.412;5.432;2022-11-20T04:42:01;16.50;;;7.20;;
74074;SDS011;62428;51.412;5.432;2022-11-20T04:44:45;17.52;;;6.90;;
74074;SDS011;62428;51.412;5.432;2022-11-20T04:47:11;16.50;;;7.07;;
74074;SDS011;62428;51.412;5.432;2022-11-20T04:49:36;17.17;;;7.60;;
74074;SDS011;62428;51.412;5.432;2022-11-20T04:52:01;14.83;;;7.20;;
74074;SDS011;62428;51.412;5.432;2022-11-20T04:54:26;14.73;;;6.30;;
74074;SDS011;62428;51.412;5.432;2022-11-20T04:56:52;17.20;;;7.23;;
74074;SDS011;62428;51.412;5.432;2022-11-20T04:59:17;14.67;;;6.40;;
74074;SDS011;62428;51.412;5.432;2022-11-20T05:01:42;14.67;;;7.13;;
74074;SDS011;62428;51.412;5.432;2022-11-20T05:04:08;14.30;;;7.50;;
74074;SDS011;62428;51.412;5.432;2022-11-20T05:06:33;14.50;;;7.10;;
74074;SDS011;62428;51.412;5.432;2022-11-20T05:08:59;16.40;;;7.30;;
74074;SDS011;62428;51.412;5.432;2022-11-20T05:11:25;13.53;;;7.00;;
74074;SDS011;62428;51.412;5.432;2022-11-20T05:13:54;14.77;;;6.80;;
74074;SDS011;62428;51.412;5.432;2022-11-20T05:16:23;16.02;;;6.82;;
74074;SDS011;62428;51.412;5.432;2022-11-20T05:18:50;15.23;;;7.50;;
74074;SDS011;62428;51.412;5.432;2022-11-20T05:21:16;14.13;;;6.82;;
74074;SDS011;62428;51.412;5.432;2022-11-20T05:23:42;16.40;;;6.93;;
74074;SDS011;62428;51.412;5.432;2022-11-20T05:26:12;18.17;;;7.15;;
74074;SDS011;62428;51.412;5.432;2022-11-20T05:28:42;14.93;;;6.80;;
74074;SDS011;62428;51.412;5.432;2022-11-20T05:31:11;20.90;;;7.73;;
74074;SDS011;62428;51.412;5.432;2022-11-20T05:33:41;16.63;;;7.03;;
74074;SDS011;62428;51.412;5.432;2022-11-20T05:36:08;17.88;;;7.53;;
74074;SDS011;62428;51.412;5.432;2022-11-20T05:38:34;15.10;;;6.57;;
74074;SDS011;62428;51.412;5.432;2022-11-20T05:41:05;17.40;;;7.10;;
74074;SDS011;62428;51.412;5.432;2022-11-20T05:43:33;14.13;;;6.50;;
74074;SDS011;62428;51.412;5.432;2022-11-20T05:46:03;16.38;;;7.53;;
74074;SDS011;62428;51.412;5.432;2022-11-20T05:48:30;16.20;;;7.05;;
74074;SDS011;62428;51.412;5.432;2022-11-20T05:50:59;15.55;;;6.85;;
74074;SDS011;62428;51.412;5.432;2022-11-20T05:53:25;17.20;;;7.10;;
74074;SDS011;62428;51.412;5.432;2022-11-20T05:55:57;18.80;;;7.10;;
74074;SDS011;62428;51.412;5.432;2022-11-20T05:58:23;17.67;;;7.55;;
74074;SDS011;62428;51.412;5.432;2022-11-20T06:00:48;14.43;;;6.27;;
74074;SDS011;62428;51.412;5.432;2022-11-20T06:03:14;17.13;;;7.50;;
74074;SDS011;62428;51.412;5.432;2022-11-20T06:05:39;16.17;;;6.70;;
74074;SDS011;62428;51.412;5.432;2022-11-20T06:08:04;17.30;;;7.30;;
74074;SDS011;62428;51.412;5.432;2022-11-20T06:10:29;16.03;;;7.50;;
74074;SDS011;62428;51.412;5.432;2022-11-20T06:12:57;15.43;;;7.07;;
74074;SDS011;62428;51.412;5.432;2022-11-20T06:15:22;16.58;;;6.97;;
74074;SDS011;62428;51.412;5.432;2022-11-20T06:17:51;17.77;;;7.03;;
74074;SDS011;62428;51.412;5.432;2022-11-20T06:20:17;16.55;;;7.20;;
74074;SDS011;62428;51.412;5.432;2022-11-20T06:22:42;15.07;;;7.07;;
74074;SDS011;62428;51.412;5.432;2022-11-20T06:25:08;16.03;;;7.30;;
74074;SDS011;62428;51.412;5.432;2022-11-20T06:27:33;19.27;;;7.63;;
74074;SDS011;62428;51.412;5.432;2022-11-20T06:29:58;15.20;;;7.23;;
74074;SDS011;62428;51.412;5.432;2022-11-20T06:32:24;15.40;;;7.27;;
74074;SDS011;62428;51.412;5.432;2022-11-20T06:34:49;15.80;;;6.43;;
74074;SDS011;62428;51.412;5.432;2022-11-20T06:37:14;17.07;;;7.03;;
74074;SDS011;62428;51.412;5.432;2022-11-20T06:39:40;16.08;;;7.00;;
74074;SDS011;62428;51.412;5.432;2022-11-20T06:42:05;14.53;;;6.63;;
74074;SDS011;62428;51.412;5.432;2022-11-20T06:44:30;18.77;;;6.83;;
74074;SDS011;62428;51.412;5.432;2022-11-20T06:46:56;22.53;;;7.33;;
74074;SDS011;62428;51.412;5.432;2022-11-20T06:49:21;15.50;;;6.83;;
74074;SDS011;62428;51.412;5.432;2022-11-20T06:51:46;15.33;;;6.97;;
74074;SDS011;62428;51.412;5.432;2022-11-20T06:54:12;16.87;;;7.00;;
74074;SDS011;62428;51.412;5.432;2022-11-20T06:56:37;12.10;;;6.13;;
74074;SDS011;62428;51.412;5.432;2022-11-20T06:59:05;15.50;;;6.83;;
74074;SDS011;62428;51.412;5.432;2022-11-20T07:01:31;14.68;;;7.07;;
74074;SDS011;62428;51.412;5.432;2022-11-20T07:03:57;13.97;;;6.80;;
74074;SDS011;62428;51.412;5.432;2022-11-20T07:06:22;13.13;;;6.87;;
74074;SDS011;62428;51.412;5.432;2022-11-20T07:08:47;14.37;;;7.00;;
74074;SDS011;62428;51.412;5.432;2022-11-20T07:11:16;15.85;;;6.72;;
74074;SDS011;62428;51.412;5.432;2022-11-20T07:13:41;14.57;;;7.10;;
74074;SDS011;62428;51.412;5.432;2022-11-20T07:16:07;17.53;;;7.23;;
74074;SDS011;62428;51.412;5.432;2022-11-20T07:18:33;14.52;;;6.95;;
74074;SDS011;62428;51.412;5.432;2022-11-20T07:21:05;13.77;;;6.17;;
74074;SDS011;62428;51.412;5.432;2022-11-20T07:23:32;16.00;;;7.25;;
74074;SDS011;62428;51.412;5.432;2022-11-20T07:25:57;18.70;;;7.43;;
74074;SDS011;62428;51.412;5.432;2022-11-20T07:28:23;16.42;;;7.28;;
74074;SDS011;62428;51.412;5.432;2022-11-20T07:30:51;12.98;;;6.22;;
74074;SDS011;62428;51.412;5.432;2022-11-20T07:33:18;18.37;;;7.00;;
74074;SDS011;62428;51.412;5.432;2022-11-20T07:35:43;16.55;;;7.97;;
74074;SDS011;62428;51.412;5.432;2022-11-20T07:38:09;15.95;;;7.07;;
74074;SDS011;62428;51.412;5.432;2022-11-20T07:40:35;15.90;;;7.60;;
74074;SDS011;62428;51.412;5.432;2022-11-20T07:43:00;15.37;;;6.77;;
74074;SDS011;62428;51.412;5.432;2022-11-20T07:45:25;16.53;;;7.70;;
74074;SDS011;62428;51.412;5.432;2022-11-20T07:47:51;15.67;;;7.13;;
74074;SDS011;62428;51.412;5.432;2022-11-20T07:50:17;15.43;;;7.10;;
74074;SDS011;62428;51.412;5.432;2022-11-20T07:52:42;15.73;;;6.77;;
74074;SDS011;62428;51.412;5.432;2022-11-20T07:55:08;16.43;;;7.10;;
74074;SDS011;62428;51.412;5.432;2022-11-20T07:57:34;16.85;;;7.25;;
74074;SDS011;62428;51.412;5.432;2022-11-20T08:00:00;14.70;;;6.97;;
74074;SDS011;62428;51.412;5.432;2022-11-20T08:02:25;15.63;;;6.80;;
74074;SDS011;62428;51.412;5.432;2022-11-20T08:04:50;14.37;;;6.80;;
74074;SDS011;62428;51.412;5.432;2022-11-20T08:07:16;17.77;;;7.07;;
74074;SDS011;62428;51.412;5.432;2022-11-20T08:09:41;18.40;;;7.87;;
74074;SDS011;62428;51.412;5.432;2022-11-20T08:12:06;15.73;;;7.40;;
74074;SDS011;62428;51.412;5.432;2022-11-20T08:14:50;18.23;;;7.25;;
74074;SDS011;62428;51.412;5.432;2022-11-20T08:17:16;17.10;;;8.03;;
74074;SDS011;62428;51.412;5.432;2022-11-20T08:19:41;15.23;;;7.27;;
74074;SDS011;62428;51.412;5.432;2022-11-20T08:22:06;19.70;;;8.20;;
74074;SDS011;62428;51.412;5.432;2022-11-20T08:24:32;18.03;;;7.67;;
74074;SDS011;62428;51.412;5.432;2022-11-20T08:27:00;19.23;;;7.60;;
74074;SDS011;62428;51.412;5.432;2022-11-20T08:29:26;19.55;;;8.02;;
74074;SDS011;62428;51.412;5.432;2022-11-20T08:31:52;23.17;;;8.40;;
74074;SDS011;62428;51.412;5.432;2022-11-20T08:34:17;17.10;;;7.33;;
74074;SDS011;62428;51.412;5.432;2022-11-20T08:36:42;20.73;;;7.80;;
74074;SDS011;62428;51.412;5.432;2022-11-20T08:39:11;17.17;;;7.85;;
74074;SDS011;62428;51.412;5.432;2022-11-20T08:41:39;17.33;;;8.05;;
74074;SDS011;62428;51.412;5.432;2022-11-20T08:44:05;21.03;;;8.63;;
74074;SDS011;62428;51.412;5.432;2022-11-20T08:46:36;18.02;;;8.40;;
74074;SDS011;62428;51.412;5.432;2022-11-20T08:49:03;16.58;;;7.93;;
74074;SDS011;62428;51.412;5.432;2022-11-20T08:51:30;17.98;;;8.25;;
74074;SDS011;62428;51.412;5.432;2022-11-20T08:53:55;21.30;;;9.40;;
74074;SDS011;62428;51.412;5.432;2022-11-20T08:56:21;21.20;;;8.45;;
74074;SDS011;62428;51.412;5.432;2022-11-20T08:58:46;22.83;;;9.52;;
74074;SDS011;62428;51.412;5.432;2022-11-20T09:01:11;23.07;;;9.40;;
74074;SDS011;62428;51.412;5.432;2022-11-20T09:03:37;26.50;;;9.73;;
74074;SDS011;62428;51.412;5.432;2022-11-20T09:06:04;27.03;;;10.40;;
74074;SDS011;62428;51.412;5.432;2022-11-20T09:08:31;24.02;;;9.30;;
74074;SDS011;62428;51.412;5.432;2022-11-20T09:10:57;24.87;;;9.97;;
74074;SDS011;62428;51.412;5.432;2022-11-20T09:13:23;32.33;;;11.32;;
74074;SDS011;62428;51.412;5.432;2022-11-20T09:15:57;45.22;;;12.55;;
74074;SDS011;62428;51.412;5.432;2022-11-20T09:18:33;37.70;;;12.65;;
74074;SDS011;62428;51.412;5.432;2022-11-20T09:21:01;33.88;;;11.73;;
74074;SDS011;62428;51.412;5.432;2022-11-20T09:23:33;40.53;;;13.27;;
74074;SDS011;62428;51.412;5.432;2022-11-20T09:26:07;41.78;;;13.57;;
74074;SDS011;62428;51.412;5.432;2022-11-20T09:28:34;41.33;;;13.85;;
74074;SDS011;62428;51.412;5.432;2022-11-20T09:31:00;37.57;;;13.00;;
74074;SDS011;62428;51.412;5.432;2022-11-20T09:33:25;38.37;;;13.20;;
74074;SDS011;62428;51.412;5.432;2022-11-20T09:35:51;45.20;;;14.23;;
74074;SDS011;62428;51.412;5.432;2022-11-20T09:38:17;38.47;;;12.77;;
74074;SDS011;62428;51.412;5.432;2022-11-20T09:40:46;41.25;;;14.57;;
74074;SDS011;62428;51.412;5.432;2022-11-20T09:43:22;45.03;;;15.88;;
74074;SDS011;62428;51.412;5.432;2022-11-20T09:56:43;44.33;;;15.20;;
74074;SDS011;62428;51.412;5.432;2022-11-20T09:59:29;43.47;;;15.30;;
74074;SDS011;62428;51.412;5.432;2022-11-20T10:08:16;46.13;;;15.50;;
74074;SDS011;62428;51.412;5.432;2022-11-20T10:10:40;42.83;;;15.30;;
74074;SDS011;62428;51.412;5.432;2022-11-20T10:13:17;45.53;;;15.40;;
74074;SDS011;62428;51.412;5.432;2022-11-20T10:24:41;43.03;;;15.30;;
74074;SDS011;62428;51.412;5.432;2022-11-20T10:27:17;44.55;;;14.82;;
74074;SDS011;62428;51.412;5.432;2022-11-20T10:30:06;46.35;;;14.73;;
74074;SDS011;62428;51.412;5.432;2022-11-20T10:32:38;42.75;;;13.68;;
74074;SDS011;62428;51.412;5.432;2022-11-20T10:37:59;37.88;;;15.32;;
74074;SDS011;62428;51.412;5.432;2022-11-20T10:40:35;37.25;;;13.55;;
74074;SDS011;62428;51.412;5.432;2022-11-20T10:43:08;40.85;;;15.13;;
74074;SDS011;62428;51.412;5.432;2022-11-20T10:45:58;37.58;;;15.38;;
74074;SDS011;62428;51.412;5.432;2022-11-20T10:48:28;41.83;;;15.33;;
74074;SDS011;62428;51.412;5.432;2022-11-20T10:51:02;37.08;;;13.50;;
74074;SDS011;62428;51.412;5.432;2022-11-20T11:01:44;41.90;;;15.73;;
74074;SDS011;62428;51.412;5.432;2022-11-20T11:04:16;49.58;;;16.17;;
74074;SDS011;62428;51.412;5.432;2022-11-20T11:06:54;42.33;;;15.23;;
74074;SDS011;62428;51.412;5.432;2022-11-20T11:09:32;52.47;;;15.88;;
74074;SDS011;62428;51.412;5.432;2022-11-20T11:12:01;44.47;;;15.68;;
74074;SDS011;62428;51.412;5.432;2022-11-20T11:14:41;47.42;;;15.60;;
74074;SDS011;62428;51.412;5.432;2022-11-20T11:17:17;43.63;;;15.68;;
74074;SDS011;62428;51.412;5.432;2022-11-20T11:19:45;46.13;;;15.07;;
74074;SDS011;62428;51.412;5.432;2022-11-20T11:22:22;42.47;;;14.07;;
74074;SDS011;62428;51.412;5.432;2022-11-20T11:24:53;55.77;;;16.63;;
74074;SDS011;62428;51.412;5.432;2022-11-20T11:27:19;40.67;;;14.63;;
74074;SDS011;62428;51.412;5.432;2022-11-20T11:29:45;47.00;;;17.48;;
74074;SDS011;62428;51.412;5.432;2022-11-20T11:32:12;47.50;;;15.50;;
74074;SDS011;62428;51.412;5.432;2022-11-20T11:34:39;42.00;;;14.68;;
74074;SDS011;62428;51.412;5.432;2022-11-20T11:37:05;41.08;;;14.68;;
74074;SDS011;62428;51.412;5.432;2022-11-20T11:39:41;43.03;;;14.37;;
74074;SDS011;62428;51.412;5.432;2022-11-20T11:42:07;48.05;;;15.65;;
74074;SDS011;62428;51.412;5.432;2022-11-20T11:44:38;46.45;;;15.23;;
74074;SDS011;62428;51.412;5.432;2022-11-20T11:47:43;47.65;;;14.48;;
74074;SDS011;62428;51.412;5.432;2022-11-20T11:55:31;45.15;;;13.90;;
74074;SDS011;62428;51.412;5.432;2022-11-20T12:00:40;43.35;;;14.77;;
74074;SDS011;62428;51.412;5.432;2022-11-20T12:03:24;50.65;;;15.75;;
74074;SDS011;62428;51.412;5.432;2022-11-20T12:05:58;38.53;;;13.98;;
74074;SDS011;62428;51.412;5.432;2022-11-20T12:08:49;46.50;;;15.63;;
74074;SDS011;62428;51.412;5.432;2022-11-20T12:11:29;44.90;;;14.40;;
74074;SDS011;62428;51.412;5.432;2022-11-20T12:13:57;44.78;;;13.85;;
74074;SDS011;62428;51.412;5.432;2022-11-20T12:16:35;48.05;;;14.75;;
74074;SDS011;62428;51.412;5.432;2022-11-20T12:19:03;49.92;;;14.65;;
74074;SDS011;62428;51.412;5.432;2022-11-20T12:21:50;48.97;;;14.23;;
74074;SDS011;62428;51.412;5.432;2022-11-20T12:32:38;47.55;;;14.95;;
74074;SDS011;62428;51.412;5.432;2022-11-20T12:47:42;49.00;;;14.75;;
74074;SDS011;62428;51.412;5.432;2022-11-20T12:52:53;48.53;;;14.47;;
74074;SDS011;62428;51.412;5.432;2022-11-20T12:55:28;49.28;;;14.95;;
74074;SDS011;62428;51.412;5.432;2022-11-20T13:00:47;53.22;;;15.45;;
74074;SDS011;62428;51.412;5.432;2022-11-20T13:03:37;46.55;;;15.27;;
74074;SDS011;62428;51.412;5.432;2022-11-20T13:08:56;51.28;;;15.27;;
74074;SDS011;62428;51.412;5.432;2022-11-20T13:16:40;53.15;;;16.00;;
74074;SDS011;62428;51.412;5.432;2022-11-20T13:19:15;53.27;;;15.83;;
74074;SDS011;62428;51.412;5.432;2022-11-20T13:21:43;55.35;;;16.20;;
74074;SDS011;62428;51.412;5.432;2022-11-20T13:24:22;57.78;;;15.50;;
74074;SDS011;62428;51.412;5.432;2022-11-20T13:29:26;46.50;;;14.65;;
74074;SDS011;62428;51.412;5.432;2022-11-20T13:32:00;53.13;;;14.73;;
74074;SDS011;62428;51.412;5.432;2022-11-20T13:37:32;55.92;;;14.90;;
74074;SDS011;62428;51.412;5.432;2022-11-20T13:42:43;50.20;;;15.23;;
74074;SDS011;62428;51.412;5.432;2022-11-20T13:45:11;48.70;;;14.90;;
74074;SDS011;62428;51.412;5.432;2022-11-20T13:47:50;51.70;;;15.68;;
74074;SDS011;62428;51.412;5.432;2022-11-20T13:50:17;47.50;;;15.07;;
74074;SDS011;62428;51.412;5.432;2022-11-20T13:57:49;49.63;;;16.30;;
74074;SDS011;62428;51.412;5.432;2022-11-20T14:00:24;53.55;;;15.68;;
74074;SDS011;62428;51.412;5.432;2022-11-20T14:03:35;53.60;;;15.85;;
74074;SDS011;62428;51.412;5.432;2022-11-20T14:05:57;52.60;;;14.60;;
74074;SDS011;62428;51.412;5.432;2022-11-20T14:08:38;52.53;;;15.57;;
74074;SDS011;62428;51.412;5.432;2022-11-20T14:11:17;48.43;;;14.43;;
74074;SDS011;62428;51.412;5.432;2022-11-20T14:13:53;51.35;;;15.32;;
74074;SDS011;62428;51.412;5.432;2022-11-20T14:16:33;51.58;;;14.25;;
74074;SDS011;62428;51.412;5.432;2022-11-20T14:21:44;51.85;;;15.90;;
74074;SDS011;62428;51.412;5.432;2022-11-20T14:24:10;52.23;;;15.57;;
74074;SDS011;62428;51.412;5.432;2022-11-20T14:26:37;47.72;;;15.50;;
74074;SDS011;62428;51.412;5.432;2022-11-20T14:29:12;62.03;;;16.60;;
74074;SDS011;62428;51.412;5.432;2022-11-20T14:31:42;55.38;;;15.77;;
74074;SDS011;62428;51.412;5.432;2022-11-20T14:34:27;47.90;;;14.35;;
74074;SDS011;62428;51.412;5.432;2022-11-20T14:37:02;55.93;;;16.00;;
74074;SDS011;62428;51.412;5.432;2022-11-20T14:39:35;50.78;;;14.65;;
74074;SDS011;62428;51.412;5.432;2022-11-20T14:42:15;51.78;;;15.55;;
74074;SDS011;62428;51.412;5.432;2022-11-20T14:44:42;60.22;;;16.95;;
74074;SDS011;62428;51.412;5.432;2022-11-20T14:47:08;56.15;;;16.35;;
74074;SDS011;62428;51.412;5.432;2022-11-20T14:49:36;53.47;;;15.90;;
74074;SDS011;62428;51.412;5.432;2022-11-20T14:52:03;55.45;;;16.20;;
74074;SDS011;62428;51.412;5.432;2022-11-20T14:55:13;64.33;;;15.90;;
74074;SDS011;62428;51.412;5.432;2022-11-20T14:57:31;53.35;;;15.75;;
74074;SDS011;62428;51.412;5.432;2022-11-20T15:02:39;57.83;;;16.65;;
74074;SDS011;62428;51.412;5.432;2022-11-20T15:05:06;60.20;;;17.17;;
74074;SDS011;62428;51.412;5.432;2022-11-20T15:07:32;54.67;;;16.40;;
74074;SDS011;62428;51.412;5.432;2022-11-20T15:10:01;58.17;;;16.13;;
74074;SDS011;62428;51.412;5.432;2022-11-20T15:12:30;58.23;;;17.97;;
74074;SDS011;62428;51.412;5.432;2022-11-20T15:14:56;66.20;;;16.80;;
74074;SDS011;62428;51.412;5.432;2022-11-20T15:17:22;61.58;;;17.13;;
74074;SDS011;62428;51.412;5.432;2022-11-20T15:19:48;58.17;;;17.50;;
74074;SDS011;62428;51.412;5.432;2022-11-20T15:22:13;56.17;;;15.43;;
74074;SDS011;62428;51.412;5.432;2022-11-20T15:24:41;64.72;;;16.90;;
74074;SDS011;62428;51.412;5.432;2022-11-20T15:27:07;54.10;;;15.93;;
74074;SDS011;62428;51.412;5.432;2022-11-20T15:29:33;62.65;;;17.40;;
74074;SDS011;62428;51.412;5.432;2022-11-20T15:31:58;62.63;;;16.80;;
74074;SDS011;62428;51.412;5.432;2022-11-20T15:34:23;58.83;;;15.02;;
74074;SDS011;62428;51.412;5.432;2022-11-20T15:36:49;55.80;;;16.50;;
74074;SDS011;62428;51.412;5.432;2022-11-20T15:39:14;60.50;;;15.00;;
74074;SDS011;62428;51.412;5.432;2022-11-20T15:41:40;54.07;;;14.90;;
74074;SDS011;62428;51.412;5.432;2022-11-20T15:44:05;59.33;;;15.50;;
74074;SDS011;62428;51.412;5.432;2022-11-20T15:46:31;60.17;;;14.75;;
74074;SDS011;62428;51.412;5.432;2022-11-20T15:49:03;52.22;;;13.82;;
74074;SDS011;62428;51.412;5.432;2022-11-20T15:51:30;42.87;;;12.63;;
74074;SDS011;62428;51.412;5.432;2022-11-20T15:54:00;50.63;;;13.00;;
74074;SDS011;62428;51.412;5.432;2022-11-20T15:56:28;53.05;;;12.23;;
74074;SDS011;62428;51.412;5.432;2022-11-20T15:58:54;44.23;;;10.73;;
74074;SDS011;62428;51.412;5.432;2022-11-20T16:01:20;40.43;;;10.57;;
74074;SDS011;62428;51.412;5.432;2022-11-20T16:03:47;37.33;;;9.48;;
74074;SDS011;62428;51.412;5.432;2022-11-20T16:06:13;33.50;;;8.82;;
74074;SDS011;62428;51.412;5.432;2022-11-20T16:08:38;31.73;;;8.60;;
74074;SDS011;62428;51.412;5.432;2022-11-20T16:11:04;29.20;;;8.25;;
74074;SDS011;62428;51.412;5.432;2022-11-20T16:13:30;31.23;;;7.17;;
74074;SDS011;62428;51.412;5.432;2022-11-20T16:16:22;22.08;;;6.70;;
74074;SDS011;62428;51.412;5.432;2022-11-20T16:18:50;21.33;;;6.35;;
74074;SDS011;62428;51.412;5.432;2022-11-20T16:21:16;16.17;;;5.37;;